Pagina principale
METAR-TAF:

METAR-TAF

Aeroporti :

Parma, Italia

Aeroporto di Parma

latitudine: 44-49-17N, longitudine: 010-17-41E, altezza: 50 m

Osservazione

Il bollettino è stato emesso 29 minuti fa, alle 11:50 UTC
Vento 2 kt da direzioni variabili
Temperature 11°C
Umidità 71%
Pressione 1013 hPa
Visibilità: 7000 m

METAR: LIMP 191150Z VRB02KT 7000 NSC 11/06 Q1013

Ora: 13:19 (12:19 UTC)

Previsione

Il bollettino è stato emesso 1 ora e 19 minuti fa, alle 11:00 UTC
Previsione valida dal 19 alle 12 UTC al 20 alle 12 UTC
Vento 5 kt da direzioni variabili
Visibilità: 7000 m
Evoluzione graduale
dal 19 alle 20 UTC al 19 alle 22 UTC
Visibilità: 3500 m
foschia
Temporaneamente
dal 20 alle 02 UTC al 20 alle 07 UTC
Visibilità: 1200 m
banchi di nebbia
Evoluzione graduale
dal 20 alle 07 UTC al 20 alle 10 UTC
Visibilità: 6000 m

TAF: LIMP 191100Z 1912/2012 VRB05KT 7000 NSC BECMG 1920/1922 3500 BR TEMPO 2002/2007 1200 BCFG BECMG 2007/2010 6000

Osservazioni e previsioni meteorologiche di più di 4000 aeroporti (messaggi METAR e TAF).

Le stazioni disponibili sono rappresentate dai dischi gialli e rossi sulla carta.

Puntare il mouse per vedere il nome della stazione.

Clicca sopra per visualizzare le osservazioni e previsioni meteorologiche.

Per cambiare la mappa : fare clic sui pulsanti verdi con una croce nera per ingrandire, il pulsante verde con un trattino per diminuire, o sulla freccia verde per le mappe adiacenti.


METAR-TAF: